Kuwait International Airport (KWI/OKBK)




Flight Aircraft Arriving
CPX774 B763
EBLG - Liège Airport
Belgium Liege, Belgium
CMB7736 B763
ETAR - Ramstein Air Force Base
Germany Ramstein, Germany
Flight Aircraft Departing
CPX773 B763
EBLG - Liège Airport
Belgium Liege, Belgium
CPX979 B763
VRMM - Malé International Airport
Maldives Male, Maldives
Airport Information
Location: Kuwait City, KW
Coordinates: 29.2267 / 47.9797
Elevation:
Time Offset:
Local Time:
UTC Time:
Jet A Price: $0.34/lbs

Current Weather
METAR: OKBK 051400Z 28006KT 1600 TSRA SCT030CB SCT040 OVC080 19/18 Q1014 NOSIG
TAF: TAF OKBK 051045Z 0512/0618 04008G18KT 6000 SCT040 BKN080 TEMPO 0512/0523 3000 TSRA/BR FEW025CB

Recent Arrivals
Date Flight Type Depart
10/26/2020 CPX979 B763 Malé International Airport (VRMM)
05/06/2020 CPX773 B763 Liège Airport (EBLG)
03/31/2020 CPX979 B763 Malé International Airport (VRMM)
12/23/2019 CPX979 B763 Malé International Airport (VRMM)
11/18/2019 CPX979 B763 Malé International Airport (VRMM)
07/07/2019 CPX773 B763 Liège Airport (EBLG)
05/08/2019 CPX773 B763 Liège Airport (EBLG)
Recent Departures
Date Flight Type Arrive
11/05/2020 CPX774 B763 Liège Airport (EBLG)
05/08/2020 CPX774 B763 Liège Airport (EBLG)
04/01/2020 CPX774 B763 Liège Airport (EBLG)
12/24/2019 CPX774 B763 Liège Airport (EBLG)
11/19/2019 CPX774 B763 Liège Airport (EBLG)
07/08/2019 CMB836 B763 Ramstein Air Force Base (ETAR)
05/10/2019 CMB836 B763 Ramstein Air Force Base (ETAR)